Time;durP1;ratioP1;P1;durP2;ratioP2;P2;SDS_P1;SDS_P2;PMS_P1;PMS_P2;Temp;Humidity;BMP_temperature;BMP_pressure;BME280_temperature;BME280_humidity;BME280_pressure;Samples;Min_cycle;Max_cycle;Signal;HPM_P1;HPM_P2
2022/12/21 00:01:13;;;;;;;28.17;11.83;;;;;;;0.26;75.66;101392.19;123114;1102;104417;-79
2022/12/21 00:03:46;;;;;;;31.97;12.23;;;;;;;0.24;75.97;101394.63;123486;1102;104277;-79
2022/12/21 00:06:17;;;;;;;31.43;12.77;;;;;;;0.24;75.85;101399.80;123417;1100;104271;-79
2022/12/21 00:08:50;;;;;;;26.95;11.15;;;;;;;0.23;75.85;101402.23;123201;1102;104351;-79
2022/12/21 00:11:23;;;;;;;32.03;12.20;;;;;;;0.21;76.19;101399.52;123129;1101;104255;-79
2022/12/21 00:13:55;;;;;;;32.17;12.17;;;;;;;0.21;76.57;101396.04;123137;1102;104280;-79
2022/12/21 00:16:30;;;;;;;31.00;12.33;;;;;;;0.18;76.23;101396.66;123121;1102;104287;-79
2022/12/21 00:19:02;;;;;;;32.00;12.83;;;;;;;0.17;76.07;101392.25;123284;1102;104344;-78
2022/12/21 00:21:36;;;;;;;30.43;12.00;;;;;;;0.15;76.13;101383.47;123199;1101;104226;-80
2022/12/21 00:24:08;;;;;;;36.20;12.70;;;;;;;0.13;75.88;101377.27;123130;1100;104350;-79
2022/12/21 00:26:40;;;;;;;34.25;13.25;;;;;;;0.11;76.28;101371.97;123181;1100;104274;-79
2022/12/21 00:29:12;;;;;;;32.00;12.45;;;;;;;0.09;76.13;101372.58;123100;1102;104348;-80
2022/12/21 00:31:43;;;;;;;30.65;12.45;;;;;;;0.07;76.52;101366.39;123207;1100;104382;-80
2022/12/21 00:34:18;;;;;;;35.70;13.22;;;;;;;0.05;76.32;101363.66;123147;1102;104325;-79
2022/12/21 00:36:50;;;;;;;31.53;12.33;;;;;;;0.04;76.60;101360.94;123205;1102;104740;-80
2022/12/21 00:39:22;;;;;;;30.70;12.43;;;;;;;0.02;76.52;101354.71;123134;1102;104335;-80
2022/12/21 00:41:53;;;;;;;31.20;12.55;;;;;;;0.01;76.17;101350.34;123149;1102;104271;-80
2022/12/21 00:44:24;;;;;;;30.07;12.67;;;;;;;0.01;76.29;101351.23;123142;1100;104255;-79
2022/12/21 00:46:58;;;;;;;29.73;11.93;;;;;;;0.01;76.40;101343.50;123189;1102;104251;-79
2022/12/21 00:49:32;;;;;;;30.33;11.87;;;;;;;0.01;76.65;101346.08;123069;1102;104332;-80
2022/12/21 00:52:05;;;;;;;31.33;12.57;;;;;;;0.02;76.49;101346.97;123091;1102;104319;-79
2022/12/21 00:54:42;;;;;;;31.57;12.40;;;;;;;0.03;75.57;101343.63;123179;1102;104255;-79
2022/12/21 00:57:14;;;;;;;33.83;12.70;;;;;;;0.03;76.26;101335.89;123155;1102;104408;-80
2022/12/21 00:59:46;;;;;;;34.33;13.03;;;;;;;0.04;76.48;101346.35;123117;1102;104354;-79
2022/12/21 01:02:19;;;;;;;31.00;11.90;;;;;;;0.06;76.36;101343.91;123195;1100;104275;-80
2022/12/21 01:04:50;;;;;;;31.33;12.67;;;;;;;0.07;76.31;101340.58;123113;1102;104229;-79
2022/12/21 01:07:21;;;;;;;30.00;11.90;;;;;;;0.09;76.30;101336.45;123236;1100;104357;-80
2022/12/21 01:09:52;;;;;;;30.43;11.60;;;;;;;0.10;75.89;101325.37;123178;1102;104388;-79
2022/12/21 01:12:23;;;;;;;30.83;12.53;;;;;;;0.11;75.83;101324.58;123062;1102;104296;-79
2022/12/21 01:14:55;;;;;;;30.07;11.93;;;;;;;0.10;76.62;101322.79;123144;1102;104354;-80
2022/12/21 01:17:28;;;;;;;31.20;12.95;;;;;;;0.10;76.54;101318.52;123123;1102;104268;-80
2022/12/21 01:20:01;;;;;;;30.35;12.05;;;;;;;0.11;76.79;101322.00;123177;1101;104274;-79
2022/12/21 01:22:34;;;;;;;31.10;11.97;;;;;;;0.11;76.78;101327.16;123100;1102;104673;-80
2022/12/21 01:25:06;;;;;;;29.80;11.95;;;;;;;0.10;76.30;101326.27;123077;1100;104303;-79
2022/12/21 01:27:37;;;;;;;30.25;11.30;;;;;;;0.09;76.33;101319.28;123156;1100;104373;-79
2022/12/21 01:30:10;;;;;;;29.37;11.80;;;;;;;0.09;75.97;101315.80;123180;1102;104275;-81
2022/12/21 01:32:41;;;;;;;30.60;11.67;;;;;;;0.08;76.02;101320.07;123227;1102;104245;-79
2022/12/21 01:35:12;;;;;;;28.97;11.60;;;;;;;0.08;76.30;101307.17;123140;1102;104467;-79
2022/12/21 01:37:43;;;;;;;32.83;12.50;;;;;;;0.08;76.71;101307.17;123124;1102;104379;-80
2022/12/21 01:40:16;;;;;;;29.20;11.80;;;;;;;0.06;75.86;101305.20;123241;1102;104245;-80
2022/12/21 01:42:47;;;;;;;32.67;11.57;;;;;;;0.05;76.12;101308.55;123270;1102;104294;-80
2022/12/21 01:45:23;;;;;;;31.17;11.83;;;;;;;0.04;75.97;101310.23;123186;1100;104245;-80
2022/12/21 01:47:57;;;;;;;28.90;10.97;;;;;;;0.04;76.09;101301.59;123095;1102;104626;-79
2022/12/21 01:50:35;;;;;;;28.63;11.80;;;;;;;0.02;76.63;101300.52;123176;1100;104315;-79
2022/12/21 01:53:14;;;;;;;31.30;11.70;;;;;;;0.00;76.54;101295.25;123133;1102;104258;-79
2022/12/21 01:55:49;;;;;;;31.30;11.53;;;;;;;0.01;76.66;101301.31;123137;1102;104405;-79
2022/12/21 01:58:25;;;;;;;31.17;11.40;;;;;;;0.01;76.11;101309.05;123176;1102;104251;-78
2022/12/21 02:00:58;;;;;;;27.90;11.13;;;;;;;-0.01;76.72;101307.23;123078;1102;104265;-79
2022/12/21 02:03:34;;;;;;;28.80;11.60;;;;;;;0.01;76.42;101298.73;123195;1102;104354;-79
2022/12/21 02:06:09;;;;;;;30.37;11.80;;;;;;;0.03;76.71;101304.92;123154;1100;104239;-78
2022/12/21 02:08:41;;;;;;;28.10;10.87;;;;;;;0.01;76.30;101284.14;123163;1102;104657;-79
2022/12/21 02:11:13;;;;;;;28.67;11.30;;;;;;;0.03;76.83;101286.86;123265;1102;104274;-79
2022/12/21 02:13:44;;;;;;;28.20;11.67;;;;;;;0.03;76.76;101285.17;123244;1102;104412;-79
2022/12/21 02:16:33;;;;;;;30.40;12.20;;;;;;;0.04;76.73;101283.53;123220;1102;104245;-79
2022/12/21 02:19:35;;;;;;;29.63;11.23;;;;;;;0.06;76.72;101284.56;123202;1102;104319;-79
2022/12/21 02:22:11;;;;;;;28.83;11.43;;;;;;;0.06;76.02;101276.81;123179;1102;104724;-80
2022/12/21 02:25:29;;;;;;;28.90;10.75;;;;;;;0.07;76.81;101270.90;123232;1100;104255;-80
2022/12/21 02:28:44;;;;;;;30.50;11.43;;;;;;;0.10;76.45;101266.02;123159;1102;104325;-79
2022/12/21 02:31:28;;;;;;;27.20;10.32;;;;;;;0.10;76.52;101266.91;122702;1105;104397;-79
2022/12/21 02:34:10;;;;;;;26.87;10.43;;;;;;;0.12;76.42;101267.05;123070;1102;104393;-79
2022/12/21 02:36:49;;;;;;;29.47;11.17;;;;;;;0.12;76.44;101260.20;123153;1102;104310;-79
2022/12/21 02:39:32;;;;;;;30.80;11.85;;;;;;;0.13;76.21;101259.44;123249;1102;104434;-79
2022/12/21 02:44:12;;;;;;;28.40;10.67;;;;;;;0.14;76.50;101256.10;123082;1102;104358;-79
2022/12/21 02:45:17;;;;;;;33.03;11.83;;;;;;;0.16;76.55;101243.33;123122;1102;107984;-79
2022/12/21 02:47:56;;;;;;;29.30;11.00;;;;;;;0.17;76.55;101242.55;123327;1101;104274;-79
2022/12/21 02:50:34;;;;;;;27.00;11.03;;;;;;;0.20;76.88;101240.23;123052;1102;104335;-80
2022/12/21 02:53:11;;;;;;;27.37;10.53;;;;;;;0.22;76.59;101227.47;123229;1100;104239;-79
2022/12/21 02:55:45;;;;;;;28.23;11.53;;;;;;;0.24;76.67;101213.04;123169;1102;117966;-79
2022/12/21 02:58:18;;;;;;;27.63;11.20;;;;;;;0.25;76.44;101214.83;123079;1102;104789;-81
2022/12/21 03:01:06;;;;;;;30.50;11.47;;;;;;;0.27;76.42;101200.41;123144;1102;104683;-79
2022/12/21 03:04:00;;;;;;;28.33;10.80;;;;;;;0.27;76.20;101185.81;123202;1103;104347;-79
2022/12/21 03:06:48;;;;;;;27.60;10.53;;;;;;;0.27;76.40;101190.97;123109;1102;104340;-79
2022/12/21 03:09:35;;;;;;;29.53;11.27;;;;;;;0.28;76.63;101190.21;123234;1102;104402;-79
2022/12/21 03:12:18;;;;;;;27.80;11.00;;;;;;;0.30;76.19;101192.93;123140;1102;104319;-79
2022/12/21 03:14:57;;;;;;;27.85;10.90;;;;;;;0.31;76.31;101199.87;123116;1102;104629;-79
2022/12/21 03:17:40;;;;;;;31.97;12.33;;;;;;;0.31;76.78;101200.81;123196;1100;104274;-80
2022/12/21 03:20:20;;;;;;;27.73;11.03;;;;;;;0.32;76.67;101209.45;123195;1102;104249;-79
2022/12/21 03:23:01;;;;;;;29.70;11.37;;;;;;;0.34;76.63;101210.48;123225;1102;104316;-79
2022/12/21 03:25:39;;;;;;;29.33;11.50;;;;;;;0.34;76.46;101213.98;123168;1102;104255;-80
2022/12/21 03:28:20;;;;;;;28.63;11.10;;;;;;;0.34;76.66;101219.16;123107;1102;104338;-80
2022/12/21 03:30:59;;;;;;;28.10;10.97;;;;;;;0.35;76.12;101228.69;123188;1102;104245;-79
2022/12/21 03:33:37;;;;;;;28.23;11.17;;;;;;;0.35;76.67;101232.95;123131;1102;104258;-79
2022/12/21 03:36:14;;;;;;;26.45;10.55;;;;;;;0.34;76.80;101231.13;123148;1102;104395;-79
2022/12/21 03:38:48;;;;;;;26.50;11.00;;;;;;;0.32;76.59;101220.67;123142;1100;104361;-81
2022/12/21 03:41:26;;;;;;;26.33;10.33;;;;;;;0.30;76.11;101217.06;123208;1102;104309;-80
2022/12/21 03:44:01;;;;;;;30.00;11.80;;;;;;;0.27;76.73;101231.38;123167;1102;104727;-80
2022/12/21 03:46:36;;;;;;;30.13;11.17;;;;;;;0.24;76.02;101236.27;123075;1099;104275;-80
2022/12/21 03:49:19;;;;;;;29.63;11.83;;;;;;;0.22;76.46;101227.47;123278;1099;104360;-80
2022/12/21 03:51:54;;;;;;;36.47;13.33;;;;;;;0.16;75.97;101221.00;123297;1099;104303;-80
2022/12/21 03:54:31;;;;;;;30.43;10.93;;;;;;;0.14;76.22;101229.36;123243;1099;104223;-79
2022/12/21 03:57:03;;;;;;;29.13;11.97;;;;;;;0.10;76.37;101222.14;123267;1102;109528;-79
2022/12/21 03:59:39;;;;;;;29.90;11.70;;;;;;;0.07;76.28;101214.13;123218;1102;104277;-80
2022/12/21 04:02:17;;;;;;;29.90;12.17;;;;;;;0.05;76.34;101213.06;123196;1102;104347;-80
2022/12/21 04:04:54;;;;;;;28.17;11.57;;;;;;;0.01;76.69;101219.63;123126;1102;104271;-79
2022/12/21 04:07:28;;;;;;;30.17;11.87;;;;;;;-0.03;76.61;101218.46;123133;1102;104226;-79
2022/12/21 04:10:05;;;;;;;30.80;12.27;;;;;;;-0.04;76.89;101220.91;123163;1102;104249;-80
2022/12/21 04:12:37;;;;;;;33.87;12.63;;;;;;;-0.07;76.83;101208.62;123122;1102;104274;-79
2022/12/21 04:15:11;;;;;;;30.10;11.50;;;;;;;-0.08;76.34;101211.06;123105;1101;104386;-79
2022/12/21 04:17:50;;;;;;;29.50;12.53;;;;;;;-0.11;76.78;101216.88;123137;1102;107069;-78
2022/12/21 04:20:24;;;;;;;32.87;13.07;;;;;;;-0.13;76.29;101222.66;123179;1102;104415;-79
2022/12/21 04:28:50;;;;;;;31.20;12.70;;;;;;;-0.26;76.35;101221.55;123133;1102;104405;-80
2022/12/21 04:31:21;;;;;;;30.13;11.67;;;;;;;-0.31;76.39;101207.34;123149;1102;104246;-79
2022/12/21 04:33:52;;;;;;;35.07;13.50;;;;;;;-0.33;76.15;101202.80;123199;1100;104348;-79
2022/12/21 04:39:13;;;;;;;31.10;11.93;;;;;;;-0.38;76.87;101199.81;123188;1102;104319;-79
2022/12/21 04:41:44;;;;;;;33.97;12.70;;;;;;;-0.39;76.14;101206.66;123192;1102;104264;-79
2022/12/21 04:44:16;;;;;;;30.70;12.33;;;;;;;-0.43;76.83;101208.81;123129;1102;104271;-79
2022/12/21 04:46:50;;;;;;;34.00;14.00;;;;;;;-0.47;76.47;101210.19;123286;1102;104706;-79
2022/12/21 04:49:22;;;;;;;34.20;12.97;;;;;;;-0.48;76.43;101202.31;123320;1101;104296;-80
2022/12/21 04:51:53;;;;;;;36.97;14.97;;;;;;;-0.50;76.38;101197.02;123140;1102;104284;-80
2022/12/21 04:54:24;;;;;;;38.67;14.33;;;;;;;-0.51;76.82;101196.88;123098;1102;104323;-79
2022/12/21 04:56:56;;;;;;;36.33;14.27;;;;;;;-0.52;75.86;101189.92;123104;1102;104313;-78
2022/12/21 04:59:28;;;;;;;40.63;13.80;;;;;;;-0.53;76.06;101172.64;123138;1100;104293;-77
2022/12/21 05:01:59;;;;;;;34.63;13.17;;;;;;;-0.53;76.58;101170.05;123231;1102;104274;-77
2022/12/21 05:04:30;;;;;;;33.90;14.27;;;;;;;-0.54;76.78;101171.74;123184;1102;104296;-78
2022/12/21 05:07:02;;;;;;;38.77;14.53;;;;;;;-0.53;76.63;101181.30;123230;1102;104233;-78
2022/12/21 05:09:33;;;;;;;36.40;13.85;;;;;;;-0.53;76.68;101183.88;123168;1102;104256;-78
2022/12/21 05:12:05;;;;;;;39.83;14.43;;;;;;;-0.53;76.43;101191.61;123204;1102;104277;-78
2022/12/21 05:14:36;;;;;;;33.20;13.10;;;;;;;-0.54;76.71;101197.52;123189;1102;104660;-78
2022/12/21 05:17:07;;;;;;;33.70;13.80;;;;;;;-0.56;76.29;101193.91;123148;1102;104223;-78
2022/12/21 05:19:39;;;;;;;33.80;14.27;;;;;;;-0.56;76.44;101186.17;123154;1102;104325;-77
2022/12/21 05:22:10;;;;;;;37.53;15.17;;;;;;;-0.57;76.54;101190.41;123176;1100;104309;-77
2022/12/21 05:24:41;;;;;;;37.80;14.67;;;;;;;-0.56;77.20;101183.59;123209;1102;104235;-78
2022/12/21 05:27:13;;;;;;;40.23;14.90;;;;;;;-0.57;76.75;101181.77;123292;1100;104342;-78
2022/12/21 05:29:44;;;;;;;43.77;15.70;;;;;;;-0.57;77.21;101180.09;123238;1100;105462;-77
2022/12/21 05:32:15;;;;;;;36.87;14.70;;;;;;;-0.58;76.14;101191.19;123499;1102;104386;-79
2022/12/21 05:34:46;;;;;;;36.33;14.30;;;;;;;-0.60;76.33;101203.02;123369;1102;104370;-77
2022/12/21 05:37:18;;;;;;;39.57;15.33;;;;;;;-0.61;77.19;101198.65;123461;1102;104280;-76
2022/12/21 05:39:49;;;;;;;40.33;16.83;;;;;;;-0.61;77.30;101201.22;123462;1099;104389;-78
2022/12/21 05:42:20;;;;;;;45.83;16.30;;;;;;;-0.59;76.59;101198.78;123594;1102;104217;-77
2022/12/21 05:44:51;;;;;;;44.47;16.57;;;;;;;-0.59;77.04;101203.94;123530;1102;104360;-77
2022/12/21 05:47:22;;;;;;;40.10;15.10;;;;;;;-0.61;77.48;101190.91;123237;1099;104374;-77
2022/12/21 05:49:54;;;;;;;38.23;15.63;;;;;;;-0.59;76.44;101185.89;123207;1102;104357;-77
2022/12/21 05:52:25;;;;;;;35.73;15.50;;;;;;;-0.57;76.91;101186.93;123191;1102;104329;-77
2022/12/21 05:54:56;;;;;;;44.40;16.37;;;;;;;-0.56;76.72;101181.91;123344;1102;104383;-76
2022/12/21 05:57:27;;;;;;;42.70;16.60;;;;;;;-0.52;77.06;101185.66;123450;1102;104383;-76
2022/12/21 05:59:59;;;;;;;42.80;16.07;;;;;;;-0.47;77.32;101189.55;123442;1102;104329;-77
2022/12/21 06:02:30;;;;;;;44.10;16.87;;;;;;;-0.45;76.79;101184.53;123527;1102;104283;-77
2022/12/21 06:05:01;;;;;;;40.97;16.47;;;;;;;-0.41;77.17;101195.27;123660;1102;104169;-76
2022/12/21 06:07:32;;;;;;;37.00;15.90;;;;;;;-0.37;77.24;101205.11;123570;1102;104261;-75
2022/12/21 06:10:04;;;;;;;38.37;16.47;;;;;;;-0.31;76.94;101206.42;123521;1101;104214;-76
2022/12/21 06:12:36;;;;;;;42.40;16.73;;;;;;;-0.26;77.11;101207.77;123578;1102;104302;-77
2022/12/21 06:15:08;;;;;;;44.90;16.70;;;;;;;-0.20;77.25;101200.58;123709;1102;104274;-76
2022/12/21 06:17:41;;;;;;;42.30;15.43;;;;;;;-0.18;77.12;101206.77;124110;1102;104175;-77
2022/12/21 06:20:14;;;;;;;40.17;17.07;;;;;;;-0.19;76.58;101207.52;123890;1102;104309;-77
2022/12/21 06:22:46;;;;;;;35.80;15.40;;;;;;;-0.18;76.89;101206.77;123777;1102;104282;-77
2022/12/21 06:25:17;;;;;;;39.77;15.83;;;;;;;-0.14;76.87;101211.45;123962;1102;104214;-77
2022/12/21 06:27:49;;;;;;;39.33;15.37;;;;;;;-0.09;77.38;101209.28;124231;1102;104225;-78
2022/12/21 06:30:20;;;;;;;39.77;16.17;;;;;;;-0.02;76.66;101207.39;124296;1102;104277;-78
2022/12/21 06:32:52;;;;;;;40.53;16.73;;;;;;;0.09;77.02;101212.58;124244;1102;104271;-77
2022/12/21 06:35:23;;;;;;;38.10;16.33;;;;;;;0.20;76.92;101222.17;124110;1100;104342;-77
2022/12/21 06:37:56;;;;;;;35.53;15.30;;;;;;;0.30;77.34;101218.74;124097;1102;102336;-78
2022/12/21 06:40:28;;;;;;;37.83;15.20;;;;;;;0.43;76.92;101219.03;124001;1100;104277;-80
2022/12/21 06:43:14;;;;;;;39.47;15.13;;;;;;;0.54;76.94;101212.22;124632;1100;104689;-79
2022/12/21 06:45:55;;;;;;;40.67;16.63;;;;;;;0.66;77.30;101212.39;124777;1102;104169;-80
2022/12/21 06:48:31;;;;;;;42.03;16.50;;;;;;;0.75;76.95;101208.02;124517;1101;103314;-79
2022/12/21 06:51:04;;;;;;;40.20;15.10;;;;;;;0.86;77.50;101207.26;124399;1102;104431;-79
2022/12/21 06:53:39;;;;;;;36.98;15.43;;;;;;;0.97;77.02;101204.70;124451;1102;104345;-80
2022/12/21 06:56:15;;;;;;;37.07;15.77;;;;;;;1.07;76.92;101213.33;124477;1102;104230;-79
2022/12/21 06:58:47;;;;;;;37.23;15.67;;;;;;;1.18;77.28;101216.83;124704;1102;104223;-79
2022/12/21 07:01:23;;;;;;;41.00;16.63;;;;;;;1.30;77.06;101211.80;124388;1102;104239;-76
2022/12/21 07:03:56;;;;;;;40.43;15.70;;;;;;;1.42;76.99;101201.59;124264;1102;104322;-77
2022/12/21 07:06:29;;;;;;;37.85;15.95;;;;;;;1.52;76.60;101198.08;124291;1102;104226;-78
2022/12/21 07:09:00;;;;;;;37.90;17.30;;;;;;;1.61;76.62;101197.16;124329;1102;104185;-78
2022/12/21 07:11:32;;;;;;;34.40;15.47;;;;;;;1.71;77.38;101196.22;124453;1102;104179;-77
2022/12/21 07:14:04;;;;;;;37.73;16.43;;;;;;;1.79;77.06;101187.42;124386;1102;104217;-79
2022/12/21 07:16:36;;;;;;;36.80;15.17;;;;;;;1.84;76.98;101180.03;124416;1102;103251;-78
2022/12/21 07:19:07;;;;;;;36.57;15.83;;;;;;;1.84;76.92;101181.70;124361;1102;104178;-74
2022/12/21 07:21:38;;;;;;;39.30;15.40;;;;;;;1.82;76.62;101188.44;124282;1102;104272;-75
2022/12/21 07:24:10;;;;;;;35.80;16.23;;;;;;;1.83;77.05;101190.27;124280;1102;104213;-77
2022/12/21 07:26:42;;;;;;;40.53;19.27;;;;;;;1.82;76.32;101181.57;124384;1102;104306;-75
2022/12/21 07:29:13;;;;;;;39.50;16.40;;;;;;;1.82;76.67;101183.27;124312;1099;104284;-75
2022/12/21 07:31:45;;;;;;;38.53;16.40;;;;;;;1.85;76.26;101193.88;124316;1102;104178;-75
2022/12/21 07:34:17;;;;;;;36.07;15.97;;;;;;;1.91;76.79;101186.61;124231;1102;104179;-76
2022/12/21 07:36:48;;;;;;;39.20;16.45;;;;;;;1.97;76.68;101187.11;124297;1102;104140;-74
2022/12/21 07:39:22;;;;;;;37.87;15.33;;;;;;;2.01;76.55;101188.25;124094;1102;104248;-75
2022/12/21 07:41:54;;;;;;;36.20;15.27;;;;;;;2.05;76.47;101178.27;124178;1102;103633;-74
2022/12/21 07:44:25;;;;;;;40.80;18.20;;;;;;;2.08;76.07;101175.92;124284;1102;104178;-75
2022/12/21 07:47:14;;;;;;;38.50;15.55;;;;;;;2.05;76.17;101175.67;124353;1102;104283;-75
2022/12/21 07:49:45;;;;;;;37.10;15.90;;;;;;;2.02;76.21;101167.66;124240;1102;104701;-75
2022/12/21 07:52:17;;;;;;;37.43;15.97;;;;;;;2.05;75.98;101169.61;124424;1102;104230;-75
2022/12/21 07:54:49;;;;;;;37.37;15.43;;;;;;;2.12;76.71;101174.47;124354;1102;104315;-75
2022/12/21 07:57:21;;;;;;;35.30;15.70;;;;;;;2.20;76.10;101181.19;124309;1101;104188;-75
2022/12/21 07:59:52;;;;;;;37.13;15.63;;;;;;;2.24;76.64;101170.27;124212;1102;104811;-75
2022/12/21 08:02:24;;;;;;;36.77;16.03;;;;;;;2.29;76.20;101176.75;124241;1102;104203;-76
2022/12/21 08:04:56;;;;;;;35.40;15.63;;;;;;;2.34;75.95;101171.94;124202;1102;104226;-75
2022/12/21 08:07:27;;;;;;;37.20;15.47;;;;;;;2.39;76.64;101170.60;124552;1102;102527;-74
2022/12/21 08:09:59;;;;;;;37.73;16.37;;;;;;;2.46;76.07;101162.55;124325;1102;104226;-74
2022/12/21 08:12:31;;;;;;;35.10;15.00;;;;;;;2.51;75.76;101155.13;124326;1102;104203;-74
2022/12/21 08:15:03;;;;;;;35.50;15.37;;;;;;;2.56;75.93;101145.13;124424;1101;104124;-75
2022/12/21 08:17:34;;;;;;;38.97;16.33;;;;;;;2.57;75.44;101149.51;124506;1102;105067;-74
2022/12/21 08:20:07;;;;;;;36.60;16.17;;;;;;;2.58;75.49;101146.14;124441;1102;102951;-75
2022/12/21 08:22:39;;;;;;;38.40;16.40;;;;;;;2.62;75.86;101151.69;124412;1099;102530;-74
2022/12/21 08:25:11;;;;;;;39.40;16.63;;;;;;;2.62;76.05;101145.61;124319;1102;104166;-75
2022/12/21 08:27:43;;;;;;;35.83;15.83;;;;;;;2.62;74.85;101143.02;124428;1100;104226;-74
2022/12/21 08:30:15;;;;;;;37.67;16.63;;;;;;;2.61;75.32;101142.09;124446;1101;104330;-78
2022/12/21 08:32:47;;;;;;;36.27;15.40;;;;;;;2.62;74.88;101150.80;124317;1102;104395;-78
2022/12/21 08:35:19;;;;;;;39.00;15.77;;;;;;;2.57;74.83;101144.33;124714;1102;104261;-78
2022/12/21 08:37:52;;;;;;;38.05;15.35;;;;;;;2.56;74.94;101143.43;124702;1102;104297;-80
2022/12/21 08:40:24;;;;;;;37.60;15.07;;;;;;;2.57;74.65;101137.48;124618;1102;102053;-78
2022/12/21 08:42:56;;;;;;;35.03;15.50;;;;;;;2.53;74.30;101119.88;124610;1102;102765;-77
2022/12/21 08:45:28;;;;;;;42.60;15.60;;;;;;;2.63;74.80;101137.95;124627;1102;102355;-78
2022/12/21 08:47:59;;;;;;;35.90;14.90;;;;;;;2.71;75.14;101135.92;124466;1102;104255;-76
2022/12/21 08:50:31;;;;;;;40.07;16.03;;;;;;;2.78;75.48;101138.22;124544;1102;102113;-77
2022/12/21 08:53:03;;;;;;;37.57;16.27;;;;;;;2.86;75.48;101131.92;124596;1101;104166;-76
2022/12/21 08:55:35;;;;;;;37.27;15.80;;;;;;;2.95;75.16;101136.92;124442;1102;104229;-77
2022/12/21 08:58:10;;;;;;;36.00;16.57;;;;;;;3.01;74.73;101133.91;124499;1102;102936;-78
2022/12/21 09:00:43;;;;;;;37.33;17.70;;;;;;;3.06;74.47;101127.37;124327;1102;104264;-76
2022/12/21 09:03:15;;;;;;;40.90;16.90;;;;;;;3.14;75.01;101120.17;124491;1102;102932;-78
2022/12/21 09:05:47;;;;;;;42.53;17.30;;;;;;;3.18;75.09;101111.81;124308;1102;104758;-77
2022/12/21 09:08:28;;;;;;;40.43;18.60;;;;;;;3.19;73.86;101113.62;124576;1101;102976;-77
2022/12/21 09:11:04;;;;;;;41.70;19.27;;;;;;;3.21;74.32;101115.56;124384;1102;103187;-76
2022/12/21 09:13:36;;;;;;;42.30;18.20;;;;;;;3.27;75.18;101117.69;124579;1102;104377;-77
2022/12/21 09:16:25;;;;;;;36.80;16.93;;;;;;;3.34;74.33;101129.45;124651;1102;102898;-76
2022/12/21 09:18:57;;;;;;;37.33;16.37;;;;;;;3.37;74.86;101124.48;124562;1102;104683;-77
2022/12/21 09:21:30;;;;;;;36.15;16.12;;;;;;;3.38;74.48;101116.82;124707;1101;105115;-79
2022/12/21 09:24:09;;;;;;;40.40;17.53;;;;;;;3.38;74.69;101110.70;124438;1102;104235;-78
2022/12/21 09:26:41;;;;;;;61.53;33.50;;;;;;;3.34;74.26;101106.99;124399;1100;104172;-76
2022/12/21 09:29:13;;;;;;;41.90;20.10;;;;;;;3.29;74.50;101090.20;124505;1102;103105;-77
2022/12/21 09:31:45;;;;;;;40.90;18.90;;;;;;;3.23;74.14;101102.70;124552;1102;102304;-79
2022/12/21 09:34:16;;;;;;;42.50;18.27;;;;;;;3.20;74.37;101107.66;124659;1101;103673;-76
2022/12/21 09:36:48;;;;;;;54.97;27.60;;;;;;;3.24;74.35;101112.27;124641;1100;104248;-78
2022/12/21 09:39:22;;;;;;;62.10;32.35;;;;;;;3.30;74.24;101106.65;124711;1102;104264;-77
2022/12/21 09:42:02;;;;;;;38.80;17.77;;;;;;;3.35;74.00;101101.03;124525;1102;102987;-77
2022/12/21 09:44:55;;;;;;;35.70;16.93;;;;;;;3.43;74.33;101086.03;124262;1102;104265;-77
2022/12/21 09:47:38;;;;;;;40.77;16.93;;;;;;;3.46;73.48;101083.66;124344;1102;104516;-78
2022/12/21 09:50:19;;;;;;;40.03;18.10;;;;;;;3.47;73.18;101072.47;124394;1099;103210;-77
2022/12/21 09:52:58;;;;;;;40.53;18.50;;;;;;;3.48;73.37;101076.88;126235;1099;103960;-78
2022/12/21 09:55:36;;;;;;;40.70;18.43;;;;;;;3.53;72.73;101066.84;126277;1101;102567;-77
2022/12/21 09:58:14;;;;;;;44.40;20.17;;;;;;;3.57;72.84;101072.36;125823;1101;102780;-76
2022/12/21 10:00:51;;;;;;;42.23;18.27;;;;;;;3.61;72.86;101078.67;124657;1102;102222;-76
2022/12/21 10:03:47;;;;;;;38.10;16.47;;;;;;;3.63;73.10;101070.99;124638;1101;104198;-77
2022/12/21 10:06:33;;;;;;;37.70;17.77;;;;;;;3.66;72.45;101072.14;124490;1102;103252;-79
2022/12/21 10:09:21;;;;;;;43.53;18.77;;;;;;;3.69;71.92;101055.87;124689;1100;104235;-77
2022/12/21 10:12:07;;;;;;;44.53;19.93;;;;;;;3.73;72.54;101052.71;124650;1099;104253;-78
2022/12/21 10:14:52;;;;;;;39.40;17.93;;;;;;;3.74;71.80;101052.83;124525;1102;102469;-77
2022/12/21 10:17:41;;;;;;;39.17;17.53;;;;;;;3.80;72.42;101049.74;124629;1102;102836;-77
2022/12/21 10:20:37;;;;;;;40.33;20.23;;;;;;;3.90;72.27;101043.53;124835;1102;103225;-78
2022/12/21 10:23:17;;;;;;;42.00;17.87;;;;;;;3.92;72.50;101034.15;124848;1100;104284;-78
2022/12/21 10:25:51;;;;;;;38.73;17.13;;;;;;;3.91;71.97;101030.66;124405;1102;102055;-78
2022/12/21 10:28:33;;;;;;;38.53;16.97;;;;;;;3.89;71.45;101029.63;124391;1099;102728;-78
2022/12/21 10:31:07;;;;;;;57.93;26.47;;;;;;;3.94;71.82;101035.15;124614;1099;104092;-78
2022/12/21 10:33:44;;;;;;;41.27;19.47;;;;;;;3.97;72.17;101022.38;124544;1102;104190;-77
2022/12/21 10:36:18;;;;;;;44.67;20.57;;;;;;;3.99;71.67;101020.82;124498;1102;104360;-74
2022/12/21 10:38:50;;;;;;;36.07;16.37;;;;;;;3.99;70.52;101022.48;124627;1103;104204;-78
2022/12/21 10:41:24;;;;;;;35.87;16.13;;;;;;;3.96;71.67;101016.30;124689;1102;104277;-78
2022/12/21 10:43:58;;;;;;;37.38;17.45;;;;;;;3.82;70.26;101005.72;124622;1102;103208;-77
2022/12/21 10:46:33;;;;;;;39.77;17.07;;;;;;;3.82;70.83;101016.11;124610;1102;104226;-76
2022/12/21 10:49:15;;;;;;;43.70;19.33;;;;;;;3.80;70.52;101010.80;124980;1102;102791;-79
2022/12/21 10:51:48;;;;;;;36.60;17.10;;;;;;;3.82;70.14;101016.11;124746;1102;104345;-78
2022/12/21 10:54:28;;;;;;;41.07;18.30;;;;;;;3.81;70.21;101012.62;124665;1102;104185;-79
2022/12/21 10:57:00;;;;;;;38.33;17.20;;;;;;;3.81;70.82;101012.62;124686;1102;104206;-77
2022/12/21 10:59:41;;;;;;;38.20;17.70;;;;;;;3.85;70.95;101005.94;124871;1102;102944;-76
2022/12/21 11:02:36;;;;;;;37.23;17.60;;;;;;;3.91;70.95;101006.37;124936;1102;104348;-78
2022/12/21 11:05:29;;;;;;;37.00;16.93;;;;;;;3.97;70.60;101012.00;124798;1102;104277;-77
2022/12/21 11:08:23;;;;;;;48.00;23.77;;;;;;;4.03;70.59;101006.34;124621;1102;117911;-77
2022/12/21 11:10:58;;;;;;;37.98;18.48;;;;;;;4.07;71.51;100995.39;124932;1102;102870;-77
2022/12/21 11:13:34;;;;;;;41.43;17.97;;;;;;;4.12;71.53;101001.80;124857;1102;104172;-77
2022/12/21 11:16:10;;;;;;;36.47;17.50;;;;;;;4.13;70.60;100993.22;124944;1102;104313;-77
2022/12/21 11:18:46;;;;;;;37.30;17.30;;;;;;;4.16;70.88;100990.83;125215;1102;103409;-76
2022/12/21 11:21:38;;;;;;;38.37;17.37;;;;;;;4.21;70.73;100997.23;124939;1099;103204;-77
2022/12/21 11:24:15;;;;;;;40.40;17.97;;;;;;;4.23;70.50;100989.55;124946;1102;102761;-77
2022/12/21 11:26:51;;;;;;;36.80;16.80;;;;;;;4.26;70.48;100989.77;124657;1102;102635;-78
2022/12/21 11:29:27;;;;;;;37.20;17.20;;;;;;;4.27;71.01;100992.46;124925;1102;104204;-80
2022/12/21 11:32:05;;;;;;;39.43;18.80;;;;;;;4.30;70.69;100994.34;124810;1102;104351;-77
2022/12/21 11:34:44;;;;;;;41.53;18.63;;;;;;;4.32;70.66;100988.48;124832;1102;104317;-77
2022/12/21 11:37:42;;;;;;;44.47;17.53;;;;;;;4.34;70.93;100985.98;124946;1099;103619;-79
2022/12/21 11:40:21;;;;;;;38.53;17.27;;;;;;;4.39;70.59;100991.49;124857;1100;102403;-77
2022/12/21 11:43:02;;;;;;;40.80;18.57;;;;;;;4.39;70.28;100981.98;124662;1099;102846;-77
2022/12/21 11:45:46;;;;;;;42.40;19.30;;;;;;;4.38;70.52;100979.29;124701;1102;102817;-78